Terminal Aerodrome Forecast
Issued by NWS

Current Version | Previous Version | Graphics & Text | Print | Product List | Glossary On
Versions: 1 2 3 4 5 6 7 8 9 10 11 12 13 14 15 16 17 18 19 20 21 22 23 24 25 26
000
FTUS41 KPBZ 210900 AAA
TAFMGW
TAF AMD
KMGW 210933Z 2110/2206 VRB03KT 6SM BR SCT050
      TEMPO 2110/2112 3SM BR
     FM211400 21005KT P6SM BKN050
     FM211900 23008KT 6SM -SHRA VCTS BKN040CB
     FM220300 VRB03KT P6SM SCT040=

USA.gov is the U.S. government's official web portal to all federal, state and local government web resources and services.